LRBC - BACAU/GEORGE ENESCU

Compiled: 21:32:18 on 19/01/2018

Latest METAR/SPECI Reports

METAR LRBC 192130Z 14008KT CAVOK 03/00 Q1010 R16/910395=

Previous reports

METAR LRBC 192100Z 13006KT CAVOK 03/00 Q1010 R16/910395=
METAR LRBC 192030Z 17010KT CAVOK 03/00 Q1009 R16/910395=
METAR LRBC 192000Z 17008KT CAVOK 02/M00 Q1009 R16/910395=
METAR LRBC 191930Z 22007KT CAVOK 03/M00 Q1009 R16/910395=

Latest TAF report

TAF LRBC 191700Z 1918/2003 VRB04KT CAVOK BECMG 1919/1921 5000 BR=

Valid WARNINGS

No valid warnings for LRBC